createdAt,value
2022-10-09T00:01:18.292Z,99.90
2022-10-09T00:03:49.484Z,99.90
2022-10-09T00:06:20.298Z,99.90
2022-10-09T00:08:48.595Z,99.90
2022-10-09T00:11:19.654Z,99.90
2022-10-09T00:13:48.182Z,99.90
2022-10-09T00:16:18.241Z,99.90
2022-10-09T00:18:47.904Z,99.90
2022-10-09T00:21:20.294Z,99.90
2022-10-09T00:23:48.313Z,99.90
2022-10-09T00:26:18.716Z,99.90
2022-10-09T00:28:47.499Z,99.90
2022-10-09T00:31:16.205Z,99.90
2022-10-09T00:33:44.320Z,99.90
2022-10-09T00:36:16.454Z,99.90
2022-10-09T00:38:44.642Z,99.90
2022-10-09T00:41:15.275Z,99.90
2022-10-09T00:43:46.931Z,99.90
2022-10-09T00:46:28.191Z,99.90
2022-10-09T00:49:03.048Z,99.90
2022-10-09T00:51:33.964Z,99.90
2022-10-09T00:54:03.902Z,99.90
2022-10-09T00:56:32.036Z,99.90
2022-10-09T00:59:00.113Z,99.90
2022-10-09T01:01:28.522Z,99.90
2022-10-09T01:03:56.441Z,99.90
2022-10-09T01:06:36.122Z,99.90
2022-10-09T01:09:09.273Z,99.90
2022-10-09T01:11:43.831Z,99.90
2022-10-09T01:14:19.478Z,99.90
2022-10-09T01:16:57.712Z,99.90
2022-10-09T01:19:42.644Z,99.90
2022-10-09T01:22:20.982Z,99.90
2022-10-09T01:24:55.896Z,99.90
2022-10-09T01:27:26.987Z,99.90
2022-10-09T01:29:57.788Z,99.90
2022-10-09T01:32:29.055Z,99.90
2022-10-09T01:34:58.144Z,99.90
2022-10-09T01:37:26.185Z,99.90
2022-10-09T01:39:54.988Z,99.90
2022-10-09T01:42:25.482Z,99.90
2022-10-09T01:44:55.783Z,99.90
2022-10-09T01:47:24.212Z,99.90
2022-10-09T01:49:56.762Z,99.90
2022-10-09T01:52:40.472Z,99.90
2022-10-09T01:55:19.404Z,99.90
2022-10-09T01:57:54.471Z,99.90
2022-10-09T02:00:22.834Z,99.90
2022-10-09T02:02:53.399Z,99.90
2022-10-09T02:05:24.797Z,99.90
2022-10-09T02:07:53.206Z,99.90
2022-10-09T02:10:23.048Z,99.90
2022-10-09T02:12:56.191Z,99.90
2022-10-09T02:15:27.502Z,99.90
2022-10-09T02:18:00.168Z,99.90
2022-10-09T02:20:32.077Z,99.90
2022-10-09T02:23:03.244Z,99.90
2022-10-09T02:25:31.296Z,99.90
2022-10-09T02:28:01.461Z,99.90
2022-10-09T02:30:37.054Z,99.90
2022-10-09T02:33:05.783Z,99.90
2022-10-09T02:35:33.967Z,99.90
2022-10-09T02:38:01.844Z,99.90
2022-10-09T02:40:29.826Z,99.90
2022-10-09T02:42:57.787Z,99.90
2022-10-09T02:45:27.075Z,99.90
2022-10-09T02:47:55.028Z,99.90
2022-10-09T02:50:22.915Z,99.90
2022-10-09T02:52:51.172Z,99.90
2022-10-09T02:55:19.295Z,99.90
2022-10-09T02:57:47.242Z,99.90
2022-10-09T03:00:16.132Z,99.90
2022-10-09T03:02:45.468Z,99.90
2022-10-09T03:05:13.531Z,99.90
2022-10-09T03:07:41.709Z,99.90
2022-10-09T03:10:10.425Z,99.90
2022-10-09T03:12:38.309Z,99.90
2022-10-09T03:15:07.294Z,99.90
2022-10-09T03:17:35.128Z,99.90
2022-10-09T03:20:04.666Z,99.90
2022-10-09T03:22:32.477Z,99.90
2022-10-09T03:25:00.354Z,99.90
2022-10-09T03:27:28.319Z,99.90
2022-10-09T03:29:56.215Z,99.90
2022-10-09T03:32:24.153Z,99.90
2022-10-09T03:34:52.110Z,99.90
2022-10-09T03:37:21.369Z,99.90
2022-10-09T03:39:51.259Z,99.90
2022-10-09T03:42:19.096Z,99.90
2022-10-09T03:44:47.055Z,99.90
2022-10-09T03:47:15.007Z,99.90
2022-10-09T03:49:42.920Z,99.90
2022-10-09T03:52:10.947Z,99.90
2022-10-09T03:54:40.169Z,99.90
2022-10-09T03:57:08.059Z,99.90
2022-10-09T03:59:35.976Z,99.90
2022-10-09T04:02:04.512Z,99.90
2022-10-09T04:04:32.424Z,99.90
2022-10-09T04:07:00.378Z,99.90
2022-10-09T04:09:28.251Z,99.90
2022-10-09T04:11:57.475Z,99.90
2022-10-09T04:14:25.335Z,99.90
2022-10-09T04:16:53.266Z,99.90
2022-10-09T04:19:21.284Z,99.90
2022-10-09T04:21:49.185Z,99.90
2022-10-09T04:24:17.217Z,99.90
2022-10-09T04:26:45.284Z,99.90
2022-10-09T04:29:14.647Z,99.90
2022-10-09T04:31:42.559Z,99.90
2022-10-09T04:34:10.504Z,99.90
2022-10-09T04:36:38.385Z,99.90
2022-10-09T04:39:06.648Z,99.90
2022-10-09T04:41:38.144Z,99.90
2022-10-09T04:44:06.447Z,99.90
2022-10-09T04:46:38.097Z,99.90
2022-10-09T04:49:06.216Z,99.90
2022-10-09T04:51:34.377Z,99.90
2022-10-09T04:54:02.346Z,99.90
2022-10-09T04:56:30.223Z,99.90
2022-10-09T04:58:58.121Z,99.90
2022-10-09T05:01:31.917Z,99.90
2022-10-09T05:04:03.452Z,99.90
2022-10-09T05:06:31.438Z,99.90
2022-10-09T05:08:59.472Z,99.90
2022-10-09T05:11:28.084Z,99.90
2022-10-09T05:13:58.477Z,99.90
2022-10-09T05:16:31.482Z,99.90
2022-10-09T05:19:00.483Z,99.90
2022-10-09T05:21:30.992Z,99.90
2022-10-09T05:24:00.988Z,99.90
2022-10-09T05:26:28.872Z,99.90
2022-10-09T05:28:56.799Z,99.90
2022-10-09T05:31:26.784Z,99.90
2022-10-09T05:33:55.505Z,99.90
2022-10-09T05:36:23.922Z,99.90
2022-10-09T05:38:53.136Z,99.90
2022-10-09T05:41:21.251Z,99.90
2022-10-09T05:43:50.877Z,99.90
2022-10-09T05:46:20.405Z,99.90
2022-10-09T05:48:53.323Z,99.90
2022-10-09T05:51:23.790Z,99.90
2022-10-09T05:53:53.511Z,99.90
2022-10-09T05:56:22.930Z,99.90
2022-10-09T05:58:52.384Z,99.90
2022-10-09T06:01:20.626Z,99.90
2022-10-09T06:03:52.874Z,99.90
2022-10-09T06:06:24.948Z,99.90
2022-10-09T06:08:54.520Z,99.90
2022-10-09T06:11:23.783Z,99.90
2022-10-09T06:13:52.760Z,99.90
2022-10-09T06:16:20.763Z,99.90
2022-10-09T06:18:49.668Z,99.90
2022-10-09T06:21:18.288Z,99.90
2022-10-09T06:23:49.849Z,99.90
2022-10-09T06:26:19.914Z,99.90
2022-10-09T06:28:48.589Z,99.90
2022-10-09T06:31:19.678Z,99.90
2022-10-09T06:33:49.582Z,99.90
2022-10-09T06:36:19.456Z,99.90
2022-10-09T06:38:47.790Z,99.90
2022-10-09T06:41:18.922Z,99.90
2022-10-09T06:43:50.658Z,99.90
2022-10-09T06:46:19.610Z,99.90
2022-10-09T06:48:47.507Z,99.90
2022-10-09T06:51:17.796Z,99.90
2022-10-09T06:53:47.898Z,99.90
2022-10-09T06:56:16.779Z,99.90
2022-10-09T06:58:46.266Z,99.90
2022-10-09T07:01:15.986Z,99.90
2022-10-09T07:03:46.940Z,99.90
2022-10-09T07:06:16.404Z,99.90
2022-10-09T07:08:45.782Z,99.90
2022-10-09T07:11:15.480Z,99.90
2022-10-09T07:13:45.282Z,99.90
2022-10-09T07:16:13.270Z,99.90
2022-10-09T07:18:42.248Z,99.90
2022-10-09T07:21:10.795Z,99.90
2022-10-09T07:23:38.690Z,99.90
2022-10-09T07:26:17.915Z,99.90
2022-10-09T07:28:48.377Z,99.90
2022-10-09T07:31:16.763Z,99.90
2022-10-09T07:33:47.448Z,99.90
2022-10-09T07:36:15.507Z,99.90
2022-10-09T07:38:43.678Z,99.90
2022-10-09T07:41:13.280Z,99.90
2022-10-09T07:43:42.893Z,99.90
2022-10-09T07:46:14.163Z,99.90
2022-10-09T07:48:42.249Z,99.90
2022-10-09T07:51:12.698Z,99.90
2022-10-09T07:53:40.599Z,99.90
2022-10-09T07:56:08.809Z,99.90
2022-10-09T07:58:36.684Z,99.90
2022-10-09T08:01:06.038Z,99.90
2022-10-09T08:03:35.497Z,99.90
2022-10-09T08:06:03.670Z,99.90
2022-10-09T08:08:31.584Z,99.90
2022-10-09T08:10:59.510Z,99.90
2022-10-09T08:13:27.445Z,99.90
2022-10-09T08:15:58.551Z,99.90
2022-10-09T08:18:26.581Z,99.90
2022-10-09T08:21:01.206Z,99.90
2022-10-09T08:23:29.541Z,99.90
2022-10-09T08:25:57.696Z,99.90
2022-10-09T08:28:25.824Z,99.90
2022-10-09T08:30:53.778Z,99.90
2022-10-09T08:33:21.973Z,99.90
2022-10-09T08:35:49.957Z,99.90
2022-10-09T08:38:44.933Z,99.90
2022-10-09T08:41:11.259Z,99.90
2022-10-09T08:43:45.067Z,99.90
2022-10-09T08:46:23.266Z,99.90
2022-10-09T08:48:52.825Z,99.90
2022-10-09T08:51:25.025Z,99.90
2022-10-09T08:54:02.100Z,99.90
2022-10-09T08:56:31.160Z,99.90
2022-10-09T08:58:59.184Z,99.90
2022-10-09T09:01:36.749Z,99.90
2022-10-09T09:04:25.516Z,99.90
2022-10-09T09:07:02.608Z,99.90
2022-10-09T09:09:43.394Z,99.90
2022-10-09T09:12:19.152Z,99.90
2022-10-09T09:14:59.290Z,99.90
2022-10-09T09:17:33.691Z,99.90
2022-10-09T09:20:10.810Z,99.90
2022-10-09T09:22:43.596Z,99.90
2022-10-09T09:25:21.900Z,97.60
2022-10-09T09:27:50.145Z,93.00
2022-10-09T09:30:21.993Z,86.00
2022-10-09T09:32:56.249Z,76.50
2022-10-09T09:35:32.520Z,66.60
2022-10-09T09:38:00.828Z,59.40
2022-10-09T09:40:38.229Z,53.70
2022-10-09T09:43:17.754Z,50.80
2022-10-09T09:45:46.121Z,48.20
2022-10-09T09:48:18.313Z,44.10
2022-10-09T09:50:56.302Z,41.70
2022-10-09T09:53:36.925Z,38.50
2022-10-09T09:56:07.257Z,36.00
2022-10-09T09:58:37.260Z,35.40
2022-10-09T10:01:07.632Z,34.20
2022-10-09T10:03:36.694Z,33.70
2022-10-09T10:06:05.247Z,32.80
2022-10-09T10:08:35.016Z,31.80
2022-10-09T10:11:06.288Z,30.60
2022-10-09T10:13:38.468Z,29.30
2022-10-09T10:16:08.674Z,29.20
2022-10-09T10:18:40.318Z,29.00
2022-10-09T10:21:12.316Z,29.10
2022-10-09T10:23:43.536Z,28.10
2022-10-09T10:26:21.462Z,27.50
2022-10-09T10:28:55.184Z,26.90
2022-10-09T10:31:41.265Z,26.50
2022-10-09T10:34:17.912Z,26.50
2022-10-09T10:36:47.341Z,26.30
2022-10-09T10:39:25.062Z,26.20
2022-10-09T10:41:56.722Z,26.10
2022-10-09T10:44:35.585Z,25.90
2022-10-09T10:47:08.285Z,25.50
2022-10-09T10:49:36.629Z,25.30
2022-10-09T10:52:17.615Z,25.30
2022-10-09T10:54:52.487Z,24.90
2022-10-09T10:57:27.139Z,24.50
2022-10-09T11:00:04.070Z,24.60
2022-10-09T11:03:07.156Z,24.50
2022-10-09T11:05:47.371Z,24.50
2022-10-09T11:08:54.484Z,24.30
2022-10-09T11:11:27.376Z,24.20
2022-10-09T11:14:05.255Z,23.90
2022-10-09T11:16:51.224Z,24.00
2022-10-09T11:19:33.402Z,23.90
2022-10-09T11:22:08.388Z,23.60
2022-10-09T11:25:00.507Z,23.40
2022-10-09T11:27:39.021Z,23.80
2022-10-09T11:30:11.689Z,24.00
2022-10-09T11:32:51.659Z,24.30
2022-10-09T11:35:23.094Z,24.70
2022-10-09T11:37:58.815Z,25.10
2022-10-09T11:40:33.149Z,25.80
2022-10-09T11:43:10.729Z,26.10
2022-10-09T11:45:44.599Z,26.80
2022-10-09T11:48:23.321Z,27.80
2022-10-09T11:50:59.639Z,28.90
2022-10-09T11:53:31.043Z,30.10
2022-10-09T11:56:06.476Z,31.20
2022-10-09T11:58:34.663Z,32.10
2022-10-09T12:01:14.111Z,32.90
2022-10-09T12:03:44.212Z,33.90
2022-10-09T12:06:15.356Z,34.90
2022-10-09T12:08:54.561Z,35.50
2022-10-09T12:11:23.644Z,35.90
2022-10-09T12:13:54.420Z,36.20
2022-10-09T12:16:47.327Z,36.60
2022-10-09T12:19:20.997Z,36.90
2022-10-09T12:21:53.246Z,36.90
2022-10-09T12:24:24.463Z,36.90
2022-10-09T12:26:55.664Z,37.30
2022-10-09T12:29:28.286Z,37.50
2022-10-09T12:32:00.006Z,37.70
2022-10-09T12:34:32.231Z,37.90
2022-10-09T12:37:14.912Z,38.10
2022-10-09T12:39:43.173Z,38.10
2022-10-09T12:42:20.192Z,38.10
2022-10-09T12:44:50.736Z,38.40
2022-10-09T12:47:26.476Z,38.50
2022-10-09T12:50:06.694Z,38.60
2022-10-09T12:52:34.597Z,38.40
2022-10-09T12:55:03.454Z,38.20
2022-10-09T12:57:31.540Z,38.00
2022-10-09T12:59:59.659Z,37.80
2022-10-09T13:02:27.825Z,37.10
2022-10-09T13:04:58.095Z,36.80
2022-10-09T13:07:30.449Z,36.70
2022-10-09T13:10:05.128Z,37.00
2022-10-09T13:12:34.339Z,37.10
2022-10-09T13:15:03.447Z,36.80
2022-10-09T13:17:34.665Z,36.60
2022-10-09T13:20:05.005Z,36.40
2022-10-09T13:22:35.988Z,36.60
2022-10-09T13:25:04.579Z,36.60
2022-10-09T13:27:35.239Z,36.70
2022-10-09T13:30:03.292Z,37.00
2022-10-09T13:32:31.177Z,37.30
2022-10-09T13:34:59.234Z,37.30
2022-10-09T13:37:28.044Z,37.40
2022-10-09T13:39:59.440Z,37.30
2022-10-09T13:42:30.829Z,37.50
2022-10-09T13:44:58.912Z,37.30
2022-10-09T13:47:26.894Z,37.20
2022-10-09T13:49:55.545Z,37.00
2022-10-09T13:52:23.430Z,37.00
2022-10-09T13:54:51.365Z,36.90
2022-10-09T13:57:20.823Z,37.00
2022-10-09T13:59:48.747Z,37.20
2022-10-09T14:02:16.656Z,37.20
2022-10-09T14:04:44.597Z,37.10
2022-10-09T14:07:12.679Z,37.20
2022-10-09T14:09:40.668Z,37.40
2022-10-09T14:12:08.659Z,37.40
2022-10-09T14:14:37.948Z,37.60
2022-10-09T14:17:05.851Z,37.80
2022-10-09T14:19:33.701Z,38.00
2022-10-09T14:22:01.570Z,38.60
2022-10-09T14:24:29.470Z,37.90
2022-10-09T14:26:57.336Z,38.10
2022-10-09T14:29:25.193Z,38.10
2022-10-09T14:31:54.441Z,37.90
2022-10-09T14:34:22.463Z,38.10
2022-10-09T14:36:50.789Z,38.30
2022-10-09T14:39:18.674Z,38.30
2022-10-09T14:41:46.641Z,38.50
2022-10-09T14:44:14.554Z,38.70
2022-10-09T14:46:42.454Z,38.90
2022-10-09T14:49:12.419Z,39.00
2022-10-09T14:51:41.532Z,38.90
2022-10-09T14:54:12.029Z,39.00
2022-10-09T14:56:40.645Z,39.20
2022-10-09T14:59:08.640Z,39.10
2022-10-09T15:01:36.899Z,39.00
2022-10-09T15:04:05.916Z,39.80
2022-10-09T15:06:35.923Z,39.90
2022-10-09T15:09:06.201Z,39.30
2022-10-09T15:11:35.846Z,39.40
2022-10-09T15:14:04.401Z,39.50
2022-10-09T15:16:32.362Z,39.80
2022-10-09T15:19:00.553Z,39.90
2022-10-09T15:21:30.460Z,39.80
2022-10-09T15:24:01.930Z,39.90
2022-10-09T15:26:32.688Z,40.00
2022-10-09T15:29:02.688Z,39.90
2022-10-09T15:31:31.906Z,39.70
2022-10-09T15:34:01.439Z,39.80
2022-10-09T15:36:30.655Z,39.80
2022-10-09T15:39:02.878Z,40.00
2022-10-09T15:41:32.977Z,40.00
2022-10-09T15:44:02.183Z,39.90
2022-10-09T15:46:30.671Z,40.00
2022-10-09T15:48:58.627Z,40.20
2022-10-09T15:51:26.979Z,40.30
2022-10-09T15:53:56.097Z,40.50
2022-10-09T15:56:25.954Z,40.80
2022-10-09T15:58:55.932Z,41.00
2022-10-09T16:01:24.511Z,41.30
2022-10-09T16:03:53.077Z,41.70
2022-10-09T16:06:22.886Z,41.90
2022-10-09T16:08:50.829Z,42.30
2022-10-09T16:11:21.882Z,42.50
2022-10-09T16:13:57.285Z,42.70
2022-10-09T16:16:27.529Z,42.80
2022-10-09T16:18:56.385Z,43.00
2022-10-09T16:21:26.017Z,43.20
2022-10-09T16:23:58.371Z,43.30
2022-10-09T16:26:28.306Z,43.30
2022-10-09T16:28:57.789Z,43.60
2022-10-09T16:31:28.248Z,43.90
2022-10-09T16:33:57.581Z,44.20
2022-10-09T16:36:25.615Z,44.40
2022-10-09T16:38:53.696Z,44.60
2022-10-09T16:41:23.036Z,44.80
2022-10-09T16:43:52.985Z,45.10
2022-10-09T16:46:24.672Z,45.40
2022-10-09T16:48:53.860Z,45.60
2022-10-09T16:51:24.114Z,45.80
2022-10-09T16:53:52.785Z,46.10
2022-10-09T16:56:24.298Z,46.40
2022-10-09T16:58:55.911Z,46.60
2022-10-09T17:01:25.258Z,46.90
2022-10-09T17:03:55.131Z,47.20
2022-10-09T17:06:24.422Z,47.50
2022-10-09T17:08:52.683Z,47.70
2022-10-09T17:11:22.249Z,48.00
2022-10-09T17:13:50.297Z,48.30
2022-10-09T17:16:20.511Z,48.50
2022-10-09T17:18:50.272Z,48.80
2022-10-09T17:21:19.169Z,49.00
2022-10-09T17:23:47.775Z,49.30
2022-10-09T17:26:17.523Z,49.50
2022-10-09T17:28:46.626Z,49.80
2022-10-09T17:31:17.070Z,50.10
2022-10-09T17:33:48.147Z,50.40
2022-10-09T17:36:19.357Z,50.70
2022-10-09T17:38:48.414Z,51.00
2022-10-09T17:41:18.096Z,51.30
2022-10-09T17:43:46.376Z,52.20
2022-10-09T17:46:15.283Z,52.60
2022-10-09T17:48:45.142Z,52.30
2022-10-09T17:51:18.088Z,52.70
2022-10-09T17:53:46.616Z,53.10
2022-10-09T17:56:14.873Z,53.50
2022-10-09T17:58:44.333Z,53.90
2022-10-09T18:01:14.303Z,54.30
2022-10-09T18:03:42.956Z,54.80
2022-10-09T18:06:13.538Z,55.20
2022-10-09T18:08:42.836Z,55.70
2022-10-09T18:11:14.741Z,56.30
2022-10-09T18:13:45.940Z,56.80
2022-10-09T18:16:15.930Z,57.40
2022-10-09T18:18:44.551Z,58.10
2022-10-09T18:21:16.754Z,58.70
2022-10-09T18:23:46.811Z,59.30
2022-10-09T18:26:17.025Z,60.10
2022-10-09T18:28:48.180Z,61.10
2022-10-09T18:31:20.561Z,62.10
2022-10-09T18:33:48.859Z,63.30
2022-10-09T18:36:19.592Z,64.10
2022-10-09T18:38:51.943Z,65.30
2022-10-09T18:41:21.153Z,66.20
2022-10-09T18:43:50.116Z,67.10
2022-10-09T18:46:20.445Z,67.90
2022-10-09T18:48:48.772Z,69.00
2022-10-09T18:51:21.362Z,69.90
2022-10-09T18:53:53.818Z,71.10
2022-10-09T18:56:22.410Z,72.10
2022-10-09T18:58:52.686Z,73.40
2022-10-09T19:01:20.815Z,74.60
2022-10-09T19:03:50.393Z,75.60
2022-10-09T19:06:19.175Z,76.80
2022-10-09T19:08:47.580Z,77.90
2022-10-09T19:11:16.828Z,78.90
2022-10-09T19:13:45.330Z,79.70
2022-10-09T19:16:13.363Z,80.70
2022-10-09T19:18:41.548Z,81.40
2022-10-09T19:21:13.791Z,82.30
2022-10-09T19:23:42.155Z,82.90
2022-10-09T19:26:10.262Z,83.60
2022-10-09T19:28:39.650Z,84.30
2022-10-09T19:31:09.082Z,85.10
2022-10-09T19:33:37.842Z,85.90
2022-10-09T19:36:07.382Z,86.80
2022-10-09T19:38:36.573Z,87.60
2022-10-09T19:41:05.488Z,88.20
2022-10-09T19:43:33.585Z,88.90
2022-10-09T19:46:04.835Z,89.50
2022-10-09T19:48:33.200Z,90.00
2022-10-09T19:51:05.371Z,90.30
2022-10-09T19:53:33.564Z,90.50
2022-10-09T19:56:02.809Z,90.80
2022-10-09T19:58:31.131Z,91.10
2022-10-09T20:00:59.117Z,91.40
2022-10-09T20:03:28.489Z,91.70
2022-10-09T20:05:56.413Z,92.00
2022-10-09T20:08:24.322Z,92.30
2022-10-09T20:10:52.227Z,92.70
2022-10-09T20:13:20.193Z,93.00
2022-10-09T20:15:48.103Z,93.30
2022-10-09T20:18:16.100Z,93.60
2022-10-09T20:20:49.652Z,94.00
2022-10-09T20:23:17.532Z,94.30
2022-10-09T20:25:47.365Z,94.60
2022-10-09T20:28:15.511Z,94.90
2022-10-09T20:30:44.172Z,95.10
2022-10-09T20:33:12.102Z,95.40
2022-10-09T20:35:43.906Z,95.60
2022-10-09T20:38:13.184Z,95.90
2022-10-09T20:40:41.119Z,96.20
2022-10-09T20:43:09.033Z,96.50
2022-10-09T20:45:41.057Z,96.70
2022-10-09T20:48:09.505Z,97.00
2022-10-09T20:50:37.819Z,97.30
2022-10-09T20:53:06.725Z,97.60
2022-10-09T20:55:36.080Z,97.80
2022-10-09T20:58:04.449Z,98.10
2022-10-09T21:00:32.362Z,98.40
2022-10-09T21:03:00.219Z,98.60
2022-10-09T21:05:28.135Z,98.90
2022-10-09T21:07:56.036Z,99.20
2022-10-09T21:10:24.000Z,99.50
2022-10-09T21:12:53.458Z,99.90
2022-10-09T21:15:22.096Z,99.90
2022-10-09T21:17:50.021Z,99.90
2022-10-09T21:20:18.163Z,99.90
2022-10-09T21:22:46.037Z,99.90
2022-10-09T21:25:15.276Z,99.90
2022-10-09T21:27:43.210Z,99.90
2022-10-09T21:30:14.363Z,99.90
2022-10-09T21:32:44.264Z,99.90
2022-10-09T21:35:12.188Z,99.90
2022-10-09T21:37:40.080Z,99.90
2022-10-09T21:40:08.868Z,99.90
2022-10-09T21:42:37.045Z,99.90
2022-10-09T21:45:05.512Z,99.90
2022-10-09T21:47:35.110Z,99.90
2022-10-09T21:50:02.955Z,99.90
2022-10-09T21:52:30.841Z,99.90
2022-10-09T21:54:58.717Z,99.90
2022-10-09T21:57:26.648Z,99.90
2022-10-09T21:59:54.505Z,99.90
2022-10-09T22:02:22.436Z,99.90
2022-10-09T22:04:57.089Z,99.90
2022-10-09T22:07:26.299Z,99.90
2022-10-09T22:09:54.225Z,99.90
2022-10-09T22:12:22.147Z,99.90
2022-10-09T22:14:50.408Z,99.90
2022-10-09T22:17:19.663Z,99.90
2022-10-09T22:19:48.418Z,99.90
2022-10-09T22:22:17.914Z,99.90
2022-10-09T22:24:45.859Z,99.90
2022-10-09T22:27:14.053Z,99.90
2022-10-09T22:29:41.964Z,99.90
2022-10-09T22:32:10.356Z,99.90
2022-10-09T22:34:38.389Z,99.90
2022-10-09T22:37:06.309Z,99.90
2022-10-09T22:39:36.493Z,99.90
2022-10-09T22:42:04.601Z,99.90
2022-10-09T22:44:32.539Z,99.90
2022-10-09T22:47:00.438Z,99.90
2022-10-09T22:49:28.466Z,99.90
2022-10-09T22:51:56.455Z,99.90
2022-10-09T22:54:24.352Z,99.90
2022-10-09T22:56:55.847Z,99.90
2022-10-09T22:59:23.840Z,99.90
2022-10-09T23:01:54.207Z,99.90
2022-10-09T23:04:23.144Z,99.90
2022-10-09T23:06:52.750Z,99.90
2022-10-09T23:09:22.280Z,99.90
2022-10-09T23:11:50.302Z,99.90
2022-10-09T23:14:22.617Z,99.90
2022-10-09T23:16:50.665Z,99.90
2022-10-09T23:19:18.974Z,99.90
2022-10-09T23:21:47.883Z,99.90
2022-10-09T23:24:17.621Z,99.90
2022-10-09T23:26:46.498Z,99.90
2022-10-09T23:29:16.683Z,99.90
2022-10-09T23:31:46.446Z,99.90
2022-10-09T23:34:17.124Z,99.90
2022-10-09T23:36:45.010Z,99.90
2022-10-09T23:39:13.767Z,99.90
2022-10-09T23:41:41.688Z,99.90
2022-10-09T23:44:09.611Z,99.90
2022-10-09T23:46:38.334Z,99.90
2022-10-09T23:49:07.715Z,99.90
2022-10-09T23:51:35.619Z,99.90
2022-10-09T23:54:03.479Z,99.90
2022-10-09T23:56:35.063Z,99.90
2022-10-09T23:59:06.347Z,99.90
